sensor_id;sensor_type;location;lat;lon;timestamp;pressure;altitude;pressure_sealevel;temperature;humidity
56681;BME280;42558;52.388;13.390;2024-01-15T00:02:24;98944.99;;;0.59;100.00
56681;BME280;42558;52.388;13.390;2024-01-15T00:04:52;98939.93;;;0.57;100.00
56681;BME280;42558;52.388;13.390;2024-01-15T00:07:21;98936.23;;;0.54;100.00
56681;BME280;42558;52.388;13.390;2024-01-15T00:09:49;98933.31;;;0.48;100.00
56681;BME280;42558;52.388;13.390;2024-01-15T00:12:17;98927.86;;;0.44;100.00
56681;BME280;42558;52.388;13.390;2024-01-15T00:14:46;98929.02;;;0.41;100.00
56681;BME280;42558;52.388;13.390;2024-01-15T00:17:14;98921.38;;;0.40;100.00
56681;BME280;42558;52.388;13.390;2024-01-15T00:19:43;98914.44;;;0.40;100.00
56681;BME280;42558;52.388;13.390;2024-01-15T00:22:11;98910.80;;;0.39;100.00
56681;BME280;42558;52.388;13.390;2024-01-15T00:24:40;98906.65;;;0.39;100.00
56681;BME280;42558;52.388;13.390;2024-01-15T00:27:08;98897.95;;;0.37;100.00
56681;BME280;42558;52.388;13.390;2024-01-15T00:29:36;98893.45;;;0.36;100.00
56681;BME280;42558;52.388;13.390;2024-01-15T00:32:05;98893.78;;;0.36;100.00
56681;BME280;42558;52.388;13.390;2024-01-15T00:34:34;98894.98;;;0.36;100.00
56681;BME280;42558;52.388;13.390;2024-01-15T00:37:04;98889.80;;;0.35;100.00
56681;BME280;42558;52.388;13.390;2024-01-15T00:39:35;98886.71;;;0.36;100.00
56681;BME280;42558;52.388;13.390;2024-01-15T00:42:05;98878.41;;;0.36;100.00
56681;BME280;42558;52.388;13.390;2024-01-15T00:44:34;98874.86;;;0.40;100.00
56681;BME280;42558;52.388;13.390;2024-01-15T00:47:04;98869.48;;;0.39;100.00
56681;BME280;42558;52.388;13.390;2024-01-15T00:49:33;98860.89;;;0.41;100.00
56681;BME280;42558;52.388;13.390;2024-01-15T00:52:03;98862.70;;;0.44;100.00
56681;BME280;42558;52.388;13.390;2024-01-15T00:54:32;98858.05;;;0.45;100.00
56681;BME280;42558;52.388;13.390;2024-01-15T00:57:02;98859.90;;;0.50;100.00
56681;BME280;42558;52.388;13.390;2024-01-15T00:59:32;98858.23;;;0.60;100.00
56681;BME280;42558;52.388;13.390;2024-01-15T01:02:01;98850.77;;;0.67;100.00
56681;BME280;42558;52.388;13.390;2024-01-15T01:04:29;98849.34;;;0.65;100.00
56681;BME280;42558;52.388;13.390;2024-01-15T01:06:58;98848.10;;;0.64;100.00
56681;BME280;42558;52.388;13.390;2024-01-15T01:09:26;98844.64;;;0.64;100.00
56681;BME280;42558;52.388;13.390;2024-01-15T01:11:58;98842.51;;;0.61;100.00
56681;BME280;42558;52.388;13.390;2024-01-15T01:14:26;98838.09;;;0.57;100.00
56681;BME280;42558;52.388;13.390;2024-01-15T01:16:53;98834.65;;;0.57;100.00
56681;BME280;42558;52.388;13.390;2024-01-15T01:19:20;98836.55;;;0.57;100.00
56681;BME280;42558;52.388;13.390;2024-01-15T01:21:49;98841.29;;;0.61;100.00
56681;BME280;42558;52.388;13.390;2024-01-15T01:24:17;98834.30;;;0.58;100.00
56681;BME280;42558;52.388;13.390;2024-01-15T01:26:46;98836.55;;;0.58;100.00
56681;BME280;42558;52.388;13.390;2024-01-15T01:29:14;98840.42;;;0.60;100.00
56681;BME280;42558;52.388;13.390;2024-01-15T01:31:46;98838.21;;;0.63;100.00
56681;BME280;42558;52.388;13.390;2024-01-15T01:34:16;98841.62;;;0.52;100.00
56681;BME280;42558;52.388;13.390;2024-01-15T01:36:45;98842.29;;;0.44;100.00
56681;BME280;42558;52.388;13.390;2024-01-15T01:39:15;98837.51;;;0.39;100.00
56681;BME280;42558;52.388;13.390;2024-01-15T01:41:44;98836.77;;;0.30;100.00
56681;BME280;42558;52.388;13.390;2024-01-15T01:44:13;98834.14;;;0.20;100.00
56681;BME280;42558;52.388;13.390;2024-01-15T01:46:43;98833.33;;;0.14;100.00
56681;BME280;42558;52.388;13.390;2024-01-15T01:49:12;98828.80;;;0.14;100.00
56681;BME280;42558;52.388;13.390;2024-01-15T01:51:42;98830.29;;;0.11;100.00
56681;BME280;42558;52.388;13.390;2024-01-15T01:54:11;98831.14;;;0.11;100.00
56681;BME280;42558;52.388;13.390;2024-01-15T01:56:43;98836.86;;;0.11;100.00
56681;BME280;42558;52.388;13.390;2024-01-15T01:59:13;98836.90;;;0.12;100.00
56681;BME280;42558;52.388;13.390;2024-01-15T02:01:44;98836.11;;;0.15;100.00
56681;BME280;42558;52.388;13.390;2024-01-15T02:04:14;98837.39;;;0.19;100.00
56681;BME280;42558;52.388;13.390;2024-01-15T02:06:48;98838.70;;;0.22;100.00
56681;BME280;42558;52.388;13.390;2024-01-15T02:09:18;98835.78;;;0.23;100.00
56681;BME280;42558;52.388;13.390;2024-01-15T02:11:47;98829.10;;;0.26;100.00
56681;BME280;42558;52.388;13.390;2024-01-15T02:14:17;98833.34;;;0.30;100.00
56681;BME280;42558;52.388;13.390;2024-01-15T02:16:46;98823.20;;;0.25;100.00
56681;BME280;42558;52.388;13.390;2024-01-15T02:19:17;98824.94;;;0.26;100.00
56681;BME280;42558;52.388;13.390;2024-01-15T02:21:46;98826.84;;;0.25;100.00
56681;BME280;42558;52.388;13.390;2024-01-15T02:24:16;98820.91;;;0.23;100.00
56681;BME280;42558;52.388;13.390;2024-01-15T02:26:46;98819.11;;;0.20;100.00
56681;BME280;42558;52.388;13.390;2024-01-15T02:29:15;98816.71;;;0.21;100.00
56681;BME280;42558;52.388;13.390;2024-01-15T02:31:44;98819.89;;;0.16;100.00
56681;BME280;42558;52.388;13.390;2024-01-15T02:34:14;98825.48;;;0.18;100.00
56681;BME280;42558;52.388;13.390;2024-01-15T02:36:43;98819.00;;;0.22;100.00
56681;BME280;42558;52.388;13.390;2024-01-15T02:39:12;98821.80;;;0.17;100.00
56681;BME280;42558;52.388;13.390;2024-01-15T02:41:42;98817.43;;;0.22;100.00
56681;BME280;42558;52.388;13.390;2024-01-15T02:44:11;98813.64;;;0.22;100.00
56681;BME280;42558;52.388;13.390;2024-01-15T02:46:40;98813.49;;;0.16;100.00
56681;BME280;42558;52.388;13.390;2024-01-15T02:49:10;98817.55;;;0.20;100.00
56681;BME280;42558;52.388;13.390;2024-01-15T02:51:39;98813.15;;;0.16;100.00
56681;BME280;42558;52.388;13.390;2024-01-15T02:54:08;98814.89;;;0.17;100.00
56681;BME280;42558;52.388;13.390;2024-01-15T02:56:38;98811.80;;;0.18;100.00
56681;BME280;42558;52.388;13.390;2024-01-15T02:59:07;98808.86;;;0.18;100.00
56681;BME280;42558;52.388;13.390;2024-01-15T03:01:36;98804.09;;;0.13;100.00
56681;BME280;42558;52.388;13.390;2024-01-15T03:04:05;98800.52;;;0.15;100.00
56681;BME280;42558;52.388;13.390;2024-01-15T03:06:35;98808.14;;;0.16;100.00
56681;BME280;42558;52.388;13.390;2024-01-15T03:09:04;98798.43;;;0.22;100.00
56681;BME280;42558;52.388;13.390;2024-01-15T03:11:40;98796.39;;;0.16;100.00
56681;BME280;42558;52.388;13.390;2024-01-15T03:14:08;98787.45;;;0.11;100.00
56681;BME280;42558;52.388;13.390;2024-01-15T03:16:37;98789.13;;;0.16;100.00
56681;BME280;42558;52.388;13.390;2024-01-15T03:19:07;98788.75;;;0.14;100.00
56681;BME280;42558;52.388;13.390;2024-01-15T03:21:36;98782.04;;;0.15;100.00
56681;BME280;42558;52.388;13.390;2024-01-15T03:24:05;98783.60;;;0.16;100.00
56681;BME280;42558;52.388;13.390;2024-01-15T03:26:34;98783.89;;;0.20;100.00
56681;BME280;42558;52.388;13.390;2024-01-15T03:29:04;98782.52;;;0.21;100.00
56681;BME280;42558;52.388;13.390;2024-01-15T03:31:33;98779.21;;;0.20;100.00
56681;BME280;42558;52.388;13.390;2024-01-15T03:34:03;98781.80;;;0.21;100.00
56681;BME280;42558;52.388;13.390;2024-01-15T03:36:32;98776.88;;;0.25;100.00
56681;BME280;42558;52.388;13.390;2024-01-15T03:39:01;98776.73;;;0.26;100.00
56681;BME280;42558;52.388;13.390;2024-01-15T03:41:31;98778.61;;;0.25;100.00
56681;BME280;42558;52.388;13.390;2024-01-15T03:44:00;98779.27;;;0.23;100.00
56681;BME280;42558;52.388;13.390;2024-01-15T03:46:30;98772.94;;;0.26;100.00
56681;BME280;42558;52.388;13.390;2024-01-15T03:48:59;98774.68;;;0.27;100.00
56681;BME280;42558;52.388;13.390;2024-01-15T03:51:29;98768.92;;;0.25;100.00
56681;BME280;42558;52.388;13.390;2024-01-15T03:53:57;98764.66;;;0.27;100.00
56681;BME280;42558;52.388;13.390;2024-01-15T03:56:26;98757.06;;;0.27;100.00
56681;BME280;42558;52.388;13.390;2024-01-15T03:58:54;98759.85;;;0.28;100.00
56681;BME280;42558;52.388;13.390;2024-01-15T04:01:23;98764.09;;;0.25;100.00
56681;BME280;42558;52.388;13.390;2024-01-15T04:03:51;98751.67;;;0.26;100.00
56681;BME280;42558;52.388;13.390;2024-01-15T04:06:19;98752.66;;;0.23;100.00
56681;BME280;42558;52.388;13.390;2024-01-15T04:08:48;98750.98;;;0.26;100.00
56681;BME280;42558;52.388;13.390;2024-01-15T04:11:16;98738.67;;;0.24;100.00
56681;BME280;42558;52.388;13.390;2024-01-15T04:13:45;98742.14;;;0.24;100.00
56681;BME280;42558;52.388;13.390;2024-01-15T04:16:13;98750.38;;;0.30;100.00
56681;BME280;42558;52.388;13.390;2024-01-15T04:18:41;98747.95;;;0.30;100.00
56681;BME280;42558;52.388;13.390;2024-01-15T04:21:10;98751.71;;;0.28;100.00
56681;BME280;42558;52.388;13.390;2024-01-15T04:23:39;98750.05;;;0.31;100.00
56681;BME280;42558;52.388;13.390;2024-01-15T04:26:07;98746.20;;;0.37;100.00
56681;BME280;42558;52.388;13.390;2024-01-15T04:28:35;98749.48;;;0.36;100.00
56681;BME280;42558;52.388;13.390;2024-01-15T04:31:04;98740.45;;;0.42;100.00
56681;BME280;42558;52.388;13.390;2024-01-15T04:33:32;98734.38;;;0.41;100.00
56681;BME280;42558;52.388;13.390;2024-01-15T04:36:04;98729.00;;;0.41;100.00
56681;BME280;42558;52.388;13.390;2024-01-15T04:38:32;98731.11;;;0.42;100.00
56681;BME280;42558;52.388;13.390;2024-01-15T04:41:00;98730.71;;;0.40;100.00
56681;BME280;42558;52.388;13.390;2024-01-15T04:43:29;98733.09;;;0.38;100.00
56681;BME280;42558;52.388;13.390;2024-01-15T04:45:57;98730.50;;;0.38;100.00
56681;BME280;42558;52.388;13.390;2024-01-15T04:48:25;98717.38;;;0.46;100.00
56681;BME280;42558;52.388;13.390;2024-01-15T04:50:54;98724.23;;;0.44;100.00
56681;BME280;42558;52.388;13.390;2024-01-15T04:53:22;98725.88;;;0.48;100.00
56681;BME280;42558;52.388;13.390;2024-01-15T04:55:51;98727.26;;;0.47;100.00
56681;BME280;42558;52.388;13.390;2024-01-15T04:58:19;98714.13;;;0.48;100.00
56681;BME280;42558;52.388;13.390;2024-01-15T05:00:47;98704.45;;;0.47;100.00
56681;BME280;42558;52.388;13.390;2024-01-15T05:03:16;98700.78;;;0.46;100.00
56681;BME280;42558;52.388;13.390;2024-01-15T05:05:44;98694.77;;;0.39;100.00
56681;BME280;42558;52.388;13.390;2024-01-15T05:08:13;98701.34;;;0.40;100.00
56681;BME280;42558;52.388;13.390;2024-01-15T05:10:41;98714.17;;;0.51;100.00
56681;BME280;42558;52.388;13.390;2024-01-15T05:13:10;98711.66;;;0.54;100.00
56681;BME280;42558;52.388;13.390;2024-01-15T05:15:38;98712.70;;;0.46;100.00
56681;BME280;42558;52.388;13.390;2024-01-15T05:18:06;98708.84;;;0.43;100.00
56681;BME280;42558;52.388;13.390;2024-01-15T05:20:35;98708.14;;;0.35;100.00
56681;BME280;42558;52.388;13.390;2024-01-15T05:23:03;98703.85;;;0.28;100.00
56681;BME280;42558;52.388;13.390;2024-01-15T05:25:32;98705.20;;;0.27;100.00
56681;BME280;42558;52.388;13.390;2024-01-15T05:28:01;98704.73;;;0.28;100.00
56681;BME280;42558;52.388;13.390;2024-01-15T05:30:28;98705.07;;;0.28;100.00
56681;BME280;42558;52.388;13.390;2024-01-15T05:32:57;98707.80;;;0.35;100.00
56681;BME280;42558;52.388;13.390;2024-01-15T05:35:25;98705.99;;;0.39;100.00
56681;BME280;42558;52.388;13.390;2024-01-15T05:37:54;98702.89;;;0.40;100.00
56681;BME280;42558;52.388;13.390;2024-01-15T05:40:22;98698.77;;;0.50;100.00
56681;BME280;42558;52.388;13.390;2024-01-15T05:42:51;98702.48;;;0.54;100.00
56681;BME280;42558;52.388;13.390;2024-01-15T05:45:19;98700.15;;;0.59;100.00
56681;BME280;42558;52.388;13.390;2024-01-15T05:47:47;98699.79;;;0.57;100.00
56681;BME280;42558;52.388;13.390;2024-01-15T05:50:16;98692.09;;;0.52;100.00
56681;BME280;42558;52.388;13.390;2024-01-15T05:52:44;98690.52;;;0.52;100.00
56681;BME280;42558;52.388;13.390;2024-01-15T05:55:13;98691.75;;;0.53;100.00
56681;BME280;42558;52.388;13.390;2024-01-15T05:57:41;98687.79;;;0.62;100.00
56681;BME280;42558;52.388;13.390;2024-01-15T06:00:11;98685.92;;;0.64;100.00
56681;BME280;42558;52.388;13.390;2024-01-15T06:02:38;98694.00;;;0.53;100.00
56681;BME280;42558;52.388;13.390;2024-01-15T06:05:06;98691.38;;;0.35;100.00
56681;BME280;42558;52.388;13.390;2024-01-15T06:07:35;98696.71;;;0.25;100.00
56681;BME280;42558;52.388;13.390;2024-01-15T06:10:07;98698.73;;;0.23;100.00
56681;BME280;42558;52.388;13.390;2024-01-15T06:12:34;98695.09;;;0.31;100.00
56681;BME280;42558;52.388;13.390;2024-01-15T06:15:04;98690.35;;;0.35;100.00
56681;BME280;42558;52.388;13.390;2024-01-15T06:17:31;98692.61;;;0.36;100.00
56681;BME280;42558;52.388;13.390;2024-01-15T06:20:00;98697.02;;;0.40;100.00
56681;BME280;42558;52.388;13.390;2024-01-15T06:22:28;98685.55;;;0.46;100.00
56681;BME280;42558;52.388;13.390;2024-01-15T06:24:57;98679.23;;;0.58;100.00
56681;BME280;42558;52.388;13.390;2024-01-15T06:27:27;98680.52;;;0.61;100.00
56681;BME280;42558;52.388;13.390;2024-01-15T06:29:56;98692.81;;;0.63;100.00
56681;BME280;42558;52.388;13.390;2024-01-15T06:32:25;98691.16;;;0.66;100.00
56681;BME280;42558;52.388;13.390;2024-01-15T06:34:55;98693.15;;;0.62;100.00
56681;BME280;42558;52.388;13.390;2024-01-15T06:37:25;98696.66;;;0.56;100.00
56681;BME280;42558;52.388;13.390;2024-01-15T06:39:54;98694.50;;;0.52;100.00
56681;BME280;42558;52.388;13.390;2024-01-15T06:42:25;98697.60;;;0.60;100.00
56681;BME280;42558;52.388;13.390;2024-01-15T06:44:54;98699.15;;;0.61;100.00
56681;BME280;42558;52.388;13.390;2024-01-15T06:47:23;98700.39;;;0.62;100.00
56681;BME280;42558;52.388;13.390;2024-01-15T06:49:52;98695.42;;;0.64;100.00
56681;BME280;42558;52.388;13.390;2024-01-15T06:52:22;98700.61;;;0.65;100.00
56681;BME280;42558;52.388;13.390;2024-01-15T06:54:52;98692.85;;;0.66;100.00
56681;BME280;42558;52.388;13.390;2024-01-15T06:57:21;98698.67;;;0.62;100.00
56681;BME280;42558;52.388;13.390;2024-01-15T06:59:50;98696.11;;;0.63;100.00
56681;BME280;42558;52.388;13.390;2024-01-15T07:02:19;98696.66;;;0.66;100.00
56681;BME280;42558;52.388;13.390;2024-01-15T07:04:49;98692.86;;;0.65;100.00
56681;BME280;42558;52.388;13.390;2024-01-15T07:07:18;98702.25;;;0.68;100.00
56681;BME280;42558;52.388;13.390;2024-01-15T07:09:48;98707.42;;;0.76;100.00
56681;BME280;42558;52.388;13.390;2024-01-15T07:12:17;98709.65;;;0.75;100.00
56681;BME280;42558;52.388;13.390;2024-01-15T07:14:47;98708.75;;;0.73;100.00
56681;BME280;42558;52.388;13.390;2024-01-15T07:17:16;98713.13;;;0.76;100.00
56681;BME280;42558;52.388;13.390;2024-01-15T07:19:45;98723.93;;;0.89;100.00
56681;BME280;42558;52.388;13.390;2024-01-15T07:22:15;98728.88;;;0.86;100.00
56681;BME280;42558;52.388;13.390;2024-01-15T07:24:46;98729.66;;;0.81;100.00
56681;BME280;42558;52.388;13.390;2024-01-15T07:27:15;98734.89;;;0.75;100.00
56681;BME280;42558;52.388;13.390;2024-01-15T07:29:45;98738.05;;;0.77;100.00
56681;BME280;42558;52.388;13.390;2024-01-15T07:32:15;98736.09;;;0.83;100.00
56681;BME280;42558;52.388;13.390;2024-01-15T07:34:44;98732.36;;;0.87;100.00
56681;BME280;42558;52.388;13.390;2024-01-15T07:37:14;98744.43;;;0.86;100.00
56681;BME280;42558;52.388;13.390;2024-01-15T07:39:43;98742.73;;;0.87;100.00
56681;BME280;42558;52.388;13.390;2024-01-15T07:42:13;98754.27;;;0.84;100.00
56681;BME280;42558;52.388;13.390;2024-01-15T07:44:43;98752.64;;;0.89;100.00
56681;BME280;42558;52.388;13.390;2024-01-15T07:47:11;98748.89;;;0.92;100.00
56681;BME280;42558;52.388;13.390;2024-01-15T07:49:39;98754.98;;;0.94;100.00
56681;BME280;42558;52.388;13.390;2024-01-15T07:52:08;98753.96;;;0.95;100.00
56681;BME280;42558;52.388;13.390;2024-01-15T07:54:36;98751.13;;;1.00;100.00
56681;BME280;42558;52.388;13.390;2024-01-15T07:57:05;98747.08;;;0.96;100.00
56681;BME280;42558;52.388;13.390;2024-01-15T07:59:35;98751.38;;;0.95;100.00
56681;BME280;42558;52.388;13.390;2024-01-15T08:02:02;98756.08;;;0.97;100.00
56681;BME280;42558;52.388;13.390;2024-01-15T08:04:30;98766.80;;;0.96;100.00
56681;BME280;42558;52.388;13.390;2024-01-15T08:06:58;98769.31;;;0.93;100.00
56681;BME280;42558;52.388;13.390;2024-01-15T08:09:27;98764.58;;;0.98;100.00
56681;BME280;42558;52.388;13.390;2024-01-15T08:11:55;98758.15;;;0.96;100.00
56681;BME280;42558;52.388;13.390;2024-01-15T08:14:24;98766.71;;;0.92;100.00
56681;BME280;42558;52.388;13.390;2024-01-15T08:16:52;98761.94;;;0.95;100.00
56681;BME280;42558;52.388;13.390;2024-01-15T08:19:20;98764.84;;;1.03;100.00
56681;BME280;42558;52.388;13.390;2024-01-15T08:21:49;98766.71;;;1.01;100.00
56681;BME280;42558;52.388;13.390;2024-01-15T08:24:17;98760.20;;;0.95;100.00
56681;BME280;42558;52.388;13.390;2024-01-15T08:26:46;98758.17;;;0.88;100.00
56681;BME280;42558;52.388;13.390;2024-01-15T08:29:14;98769.96;;;0.90;100.00
56681;BME280;42558;52.388;13.390;2024-01-15T08:31:42;98768.72;;;0.89;100.00
56681;BME280;42558;52.388;13.390;2024-01-15T08:34:11;98769.67;;;0.85;100.00
56681;BME280;42558;52.388;13.390;2024-01-15T08:36:39;98759.25;;;0.82;100.00
56681;BME280;42558;52.388;13.390;2024-01-15T08:39:08;98758.91;;;0.82;100.00
56681;BME280;42558;52.388;13.390;2024-01-15T08:41:36;98755.59;;;0.89;100.00
56681;BME280;42558;52.388;13.390;2024-01-15T08:44:04;98757.52;;;0.91;100.00
56681;BME280;42558;52.388;13.390;2024-01-15T08:46:33;98749.11;;;1.04;100.00
56681;BME280;42558;52.388;13.390;2024-01-15T08:49:01;98758.41;;;1.10;100.00
56681;BME280;42558;52.388;13.390;2024-01-15T08:51:30;98752.79;;;1.06;100.00
56681;BME280;42558;52.388;13.390;2024-01-15T08:53:58;98762.36;;;1.09;100.00
56681;BME280;42558;52.388;13.390;2024-01-15T08:56:27;98765.21;;;1.14;100.00
56681;BME280;42558;52.388;13.390;2024-01-15T08:58:55;98772.83;;;1.13;100.00
56681;BME280;42558;52.388;13.390;2024-01-15T09:01:23;98774.73;;;1.13;100.00
56681;BME280;42558;52.388;13.390;2024-01-15T09:03:52;98771.60;;;1.12;100.00
56681;BME280;42558;52.388;13.390;2024-01-15T09:06:20;98775.86;;;1.09;100.00
56681;BME280;42558;52.388;13.390;2024-01-15T09:08:49;98777.29;;;1.11;100.00
56681;BME280;42558;52.388;13.390;2024-01-15T09:11:17;98779.29;;;1.07;100.00
56681;BME280;42558;52.388;13.390;2024-01-15T09:13:45;98789.28;;;1.05;100.00
56681;BME280;42558;52.388;13.390;2024-01-15T09:16:14;98785.13;;;1.06;100.00
56681;BME280;42558;52.388;13.390;2024-01-15T09:18:42;98785.88;;;1.08;100.00
56681;BME280;42558;52.388;13.390;2024-01-15T09:21:11;98790.48;;;1.04;100.00
56681;BME280;42558;52.388;13.390;2024-01-15T09:23:39;98789.67;;;0.98;100.00
56681;BME280;42558;52.388;13.390;2024-01-15T09:26:08;98787.03;;;0.96;100.00
56681;BME280;42558;52.388;13.390;2024-01-15T09:28:36;98791.90;;;0.97;100.00
56681;BME280;42558;52.388;13.390;2024-01-15T09:31:04;98788.58;;;0.95;100.00
56681;BME280;42558;52.388;13.390;2024-01-15T09:33:33;98792.48;;;1.00;100.00
56681;BME280;42558;52.388;13.390;2024-01-15T09:36:03;98791.84;;;1.04;100.00
56681;BME280;42558;52.388;13.390;2024-01-15T09:38:31;98793.30;;;1.07;100.00
56681;BME280;42558;52.388;13.390;2024-01-15T09:40:58;98799.27;;;1.12;100.00
56681;BME280;42558;52.388;13.390;2024-01-15T09:43:26;98801.92;;;1.15;100.00
56681;BME280;42558;52.388;13.390;2024-01-15T09:45:56;98805.66;;;1.19;100.00
56681;BME280;42558;52.388;13.390;2024-01-15T09:48:24;98807.48;;;1.25;100.00
56681;BME280;42558;52.388;13.390;2024-01-15T09:50:53;98810.29;;;1.26;100.00
56681;BME280;42558;52.388;13.390;2024-01-15T09:53:21;98806.91;;;1.31;100.00
56681;BME280;42558;52.388;13.390;2024-01-15T09:55:50;98802.85;;;1.27;100.00
56681;BME280;42558;52.388;13.390;2024-01-15T09:58:18;98795.36;;;1.24;100.00
56681;BME280;42558;52.388;13.390;2024-01-15T10:00:48;98794.84;;;1.24;100.00
56681;BME280;42558;52.388;13.390;2024-01-15T10:03:21;98788.95;;;1.24;100.00
56681;BME280;42558;52.388;13.390;2024-01-15T10:05:51;98788.52;;;1.28;100.00
56681;BME280;42558;52.388;13.390;2024-01-15T10:08:22;98784.05;;;1.30;100.00
56681;BME280;42558;52.388;13.390;2024-01-15T10:10:53;98783.24;;;1.33;100.00
56681;BME280;42558;52.388;13.390;2024-01-15T10:13:22;98783.70;;;1.29;100.00
56681;BME280;42558;52.388;13.390;2024-01-15T10:15:53;98783.59;;;1.33;100.00
56681;BME280;42558;52.388;13.390;2024-01-15T10:18:22;98787.77;;;1.34;100.00
56681;BME280;42558;52.388;13.390;2024-01-15T10:20:52;98785.31;;;1.33;100.00
56681;BME280;42558;52.388;13.390;2024-01-15T10:23:20;98784.67;;;1.36;100.00
56681;BME280;42558;52.388;13.390;2024-01-15T10:25:49;98784.73;;;1.40;100.00
56681;BME280;42558;52.388;13.390;2024-01-15T10:28:19;98784.11;;;1.43;100.00
56681;BME280;42558;52.388;13.390;2024-01-15T10:30:54;98781.38;;;1.46;100.00
56681;BME280;42558;52.388;13.390;2024-01-15T10:33:23;98774.14;;;1.48;100.00
56681;BME280;42558;52.388;13.390;2024-01-15T10:35:59;98770.41;;;1.52;100.00
56681;BME280;42558;52.388;13.390;2024-01-15T10:38:29;98773.88;;;1.53;100.00
56681;BME280;42558;52.388;13.390;2024-01-15T10:40:59;98768.58;;;1.56;100.00
56681;BME280;42558;52.388;13.390;2024-01-15T10:43:28;98773.77;;;1.55;100.00
56681;BME280;42558;52.388;13.390;2024-01-15T10:45:58;98773.60;;;1.55;100.00
56681;BME280;42558;52.388;13.390;2024-01-15T10:48:28;98774.58;;;1.52;100.00
56681;BME280;42558;52.388;13.390;2024-01-15T10:51:00;98779.59;;;1.52;100.00
56681;BME280;42558;52.388;13.390;2024-01-15T10:53:30;98772.67;;;1.53;100.00
56681;BME280;42558;52.388;13.390;2024-01-15T10:56:02;98774.39;;;1.52;100.00
56681;BME280;42558;52.388;13.390;2024-01-15T10:58:34;98775.58;;;1.50;100.00
56681;BME280;42558;52.388;13.390;2024-01-15T11:01:04;98774.56;;;1.52;100.00
56681;BME280;42558;52.388;13.390;2024-01-15T11:03:35;98775.13;;;1.55;100.00
56681;BME280;42558;52.388;13.390;2024-01-15T11:06:20;98780.09;;;1.60;100.00
56681;BME280;42558;52.388;13.390;2024-01-15T11:08:53;98773.26;;;1.67;100.00
56681;BME280;42558;52.388;13.390;2024-01-15T11:11:23;98763.85;;;1.74;100.00
56681;BME280;42558;52.388;13.390;2024-01-15T11:13:52;98759.84;;;1.94;100.00
56681;BME280;42558;52.388;13.390;2024-01-15T11:16:21;98757.45;;;1.96;100.00
56681;BME280;42558;52.388;13.390;2024-01-15T11:21:27;98768.50;;;2.40;100.00
56681;BME280;42558;52.388;13.390;2024-01-15T11:24:01;98782.54;;;2.16;100.00
56681;BME280;42558;52.388;13.390;2024-01-15T11:26:43;98779.31;;;1.87;100.00
56681;BME280;42558;52.388;13.390;2024-01-15T11:32:09;98793.78;;;1.52;100.00
56681;BME280;42558;52.388;13.390;2024-01-15T11:37:24;98786.25;;;1.37;100.00
56681;BME280;42558;52.388;13.390;2024-01-15T11:39:55;98783.23;;;1.33;100.00
56681;BME280;42558;52.388;13.390;2024-01-15T11:42:25;98790.08;;;1.28;100.00
56681;BME280;42558;52.388;13.390;2024-01-15T11:44:54;98788.18;;;1.20;100.00
56681;BME280;42558;52.388;13.390;2024-01-15T11:50:22;98783.67;;;1.20;100.00
56681;BME280;42558;52.388;13.390;2024-01-15T11:53:01;98789.45;;;1.23;100.00
56681;BME280;42558;52.388;13.390;2024-01-15T11:55:41;98789.95;;;1.21;100.00
56681;BME280;42558;52.388;13.390;2024-01-15T11:58:13;98793.66;;;1.17;100.00
56681;BME280;42558;52.388;13.390;2024-01-15T12:00:46;98793.66;;;1.17;100.00
56681;BME280;42558;52.388;13.390;2024-01-15T12:03:15;98790.16;;;1.15;100.00
56681;BME280;42558;52.388;13.390;2024-01-15T12:05:42;98794.95;;;1.12;100.00
56681;BME280;42558;52.388;13.390;2024-01-15T12:08:12;98793.19;;;1.10;100.00
56681;BME280;42558;52.388;13.390;2024-01-15T12:10:41;98787.39;;;1.06;100.00
56681;BME280;42558;52.388;13.390;2024-01-15T12:13:12;98790.98;;;1.03;100.00
56681;BME280;42558;52.388;13.390;2024-01-15T12:15:43;98797.92;;;1.06;100.00
56681;BME280;42558;52.388;13.390;2024-01-15T12:18:15;98801.73;;;1.05;100.00
56681;BME280;42558;52.388;13.390;2024-01-15T12:20:45;98794.81;;;1.05;100.00
56681;BME280;42558;52.388;13.390;2024-01-15T12:23:18;98795.54;;;1.06;100.00
56681;BME280;42558;52.388;13.390;2024-01-15T12:25:49;98799.73;;;1.08;100.00
56681;BME280;42558;52.388;13.390;2024-01-15T12:28:18;98798.46;;;1.07;100.00
56681;BME280;42558;52.388;13.390;2024-01-15T12:30:47;98805.09;;;1.08;100.00
56681;BME280;42558;52.388;13.390;2024-01-15T12:33:18;98804.10;;;1.10;100.00
56681;BME280;42558;52.388;13.390;2024-01-15T12:35:46;98801.52;;;1.12;100.00
56681;BME280;42558;52.388;13.390;2024-01-15T12:38:15;98803.13;;;1.14;100.00
56681;BME280;42558;52.388;13.390;2024-01-15T12:40:43;98800.58;;;1.17;100.00
56681;BME280;42558;52.388;13.390;2024-01-15T12:43:15;98802.15;;;1.17;100.00
56681;BME280;42558;52.388;13.390;2024-01-15T12:45:46;98803.88;;;1.16;100.00
56681;BME280;42558;52.388;13.390;2024-01-15T12:48:15;98808.17;;;1.16;100.00
56681;BME280;42558;52.388;13.390;2024-01-15T12:50:47;98811.90;;;1.12;100.00
56681;BME280;42558;52.388;13.390;2024-01-15T12:53:16;98810.55;;;1.04;100.00
56681;BME280;42558;52.388;13.390;2024-01-15T12:55:46;98813.77;;;1.00;100.00
56681;BME280;42558;52.388;13.390;2024-01-15T12:58:16;98819.78;;;0.90;100.00
56681;BME280;42558;52.388;13.390;2024-01-15T13:00:48;98823.56;;;0.80;100.00
56681;BME280;42558;52.388;13.390;2024-01-15T13:03:19;98825.88;;;0.75;100.00
56681;BME280;42558;52.388;13.390;2024-01-15T13:05:48;98827.23;;;0.74;100.00
56681;BME280;42558;52.388;13.390;2024-01-15T13:08:18;98830.56;;;0.76;100.00
56681;BME280;42558;52.388;13.390;2024-01-15T13:10:47;98829.70;;;0.76;100.00
56681;BME280;42558;52.388;13.390;2024-01-15T13:13:16;98831.33;;;0.80;100.00